< Typhoon 196425 1964 Season Typhoon 196427 >
Typhoon 196426 (GEORGIA)
General InformationTrack Information on Google Maps || Disaster Info.ResourceGoogle EarthGE AnimationAtom FeedGeoJSON
Detalied Best Track (Time Zone = UTC)
Year Month Day Hour Lat. Long. Pressure (hPa) Wind (kt) Class Image Chart
1964 10 18 18 10.0 130.0 1005 0 2 -- Chart
1964 10 19 00 10.8 131.9 1006 0 2 -- Chart
1964 10 19 06 11.0 133.0 1004 0 2 -- Chart
1964 10 19 12 11.8 133.0 1004 0 2 -- Chart
1964 10 19 18 12.9 131.8 1004 0 2 -- Chart
1964 10 20 00 13.0 130.0 1004 0 2 -- Chart
1964 10 20 06 13.0 128.0 1001 0 2 -- Chart
1964 10 20 12 13.5 126.3 1002 0 2 -- Chart
1964 10 20 18 14.0 124.6 1002 0 2 -- Chart
1964 10 21 00 14.6 122.7 1000 0 2 -- Chart
1964 10 21 06 14.6 121.1 1000 0 2 -- Chart
1964 10 21 12 16.3 119.0 1000 0 2 -- Chart
1964 10 21 18 16.5 117.6 1000 0 9 -- Chart
1964 10 22 00 16.9 116.0 996 0 9 -- Chart
1964 10 22 06 17.5 114.3 996 0 9 -- Chart
1964 10 22 12 17.9 113.0 994 0 9 -- Chart
1964 10 22 18 18.2 111.6 994 0 9 -- Chart
1964 10 23 00 18.2 110.1 996 0 9 -- Chart
1964 10 23 06 17.9 108.9 996 0 9 -- Chart
1964 10 23 12 18.2 107.6 996 0 9 -- Chart
1964 10 23 18 18.0 107.0 996 0 9 -- Chart
1964 10 24 00 18.0 106.0 1002 0 2 -- Chart
1964 10 24 06 17.4 105.4 1002 0 2 -- Chart
1964 10 24 12 17.0 104.7 1008 0 2 -- Chart
Japan Meteorological Agency Best Track Data | Correction Date : 1989-06-01
< Typhoon 196425 1964 Season Typhoon 196427 >

Help